Time;durP1;ratioP1;P1;durP2;ratioP2;P2;SDS_P1;SDS_P2;PMS_P1;PMS_P2;Temp;Humidity;BMP_temperature;BMP_pressure;BME280_temperature;BME280_humidity;BME280_pressure;Samples;Min_cycle;Max_cycle;Signal;HPM_P1;HPM_P2
2021/09/14 00:01:39;;;;;;;1.60;0.90;;;17.20;99.90;;;;;;5093683;28;20494;-87
2021/09/14 00:04:06;;;;;;;1.00;0.60;;;17.20;99.90;;;;;;5094855;28;20452;-87
2021/09/14 00:06:38;;;;;;;1.43;1.03;;;17.20;99.90;;;;;;5105713;28;20460;-86
2021/09/14 00:09:05;;;;;;;2.10;0.90;;;17.10;99.90;;;;;;5094002;28;20479;-86
2021/09/14 00:11:32;;;;;;;2.10;0.90;;;17.10;99.90;;;;;;5094606;28;20455;-87
2021/09/14 00:13:58;;;;;;;1.23;1.13;;;17.10;99.90;;;;;;5093829;28;20988;-86
2021/09/14 00:16:27;;;;;;;0.80;0.80;;;17.10;99.90;;;;;;5093664;28;20519;-87
2021/09/14 00:18:53;;;;;;;1.03;0.93;;;17.10;99.90;;;;;;5094687;28;20474;-86
2021/09/14 00:21:20;;;;;;;1.40;0.70;;;17.00;99.90;;;;;;5094194;28;20458;-87
2021/09/14 00:23:47;;;;;;;0.77;0.77;;;17.00;99.90;;;;;;5093850;28;20931;-87
2021/09/14 00:26:15;;;;;;;1.10;1.00;;;16.90;99.90;;;;;;5093994;28;20539;-87
2021/09/14 00:28:42;;;;;;;1.27;0.90;;;16.90;99.90;;;;;;5097808;28;20514;-87
2021/09/14 00:31:09;;;;;;;2.23;1.03;;;16.90;99.90;;;;;;5097685;28;20439;-87
2021/09/14 00:33:37;;;;;;;0.80;0.80;;;16.90;99.90;;;;;;5097779;28;20478;-86
2021/09/14 00:36:04;;;;;;;1.43;1.17;;;16.90;99.90;;;;;;5097651;28;21030;-87
2021/09/14 00:38:31;;;;;;;3.13;0.80;;;16.90;99.90;;;;;;5097149;28;21002;-87
2021/09/14 00:40:58;;;;;;;1.00;0.90;;;16.90;99.90;;;;;;5097447;28;20523;-87
2021/09/14 00:43:25;;;;;;;1.00;0.80;;;16.80;99.90;;;;;;5097216;28;20475;-87
2021/09/14 00:45:53;;;;;;;1.43;1.07;;;16.80;99.90;;;;;;5097979;28;20542;-87
2021/09/14 00:48:20;;;;;;;1.00;0.90;;;16.80;99.90;;;;;;5096916;28;20436;-87
2021/09/14 00:50:48;;;;;;;1.67;0.97;;;16.80;99.90;;;;;;5096869;28;20468;-87
2021/09/14 00:53:16;;;;;;;0.70;0.70;;;16.80;99.90;;;;;;5097350;28;20452;-87
2021/09/14 00:55:43;;;;;;;1.50;1.00;;;16.80;99.90;;;;;;5097138;28;20443;-87
2021/09/14 00:58:10;;;;;;;1.20;0.57;;;16.80;99.90;;;;;;5097673;28;20455;-86
2021/09/14 01:00:37;;;;;;;2.93;0.90;;;16.80;99.90;;;;;;5096943;28;20817;-86
2021/09/14 01:03:04;;;;;;;1.10;1.00;;;16.80;99.90;;;;;;5096864;28;20458;-86
2021/09/14 01:05:31;;;;;;;1.50;1.40;;;16.80;99.90;;;;;;5096855;28;20452;-87
2021/09/14 01:08:01;;;;;;;0.70;0.60;;;16.80;99.90;;;;;;5096884;28;20455;-86
2021/09/14 01:10:29;;;;;;;1.17;1.03;;;16.80;99.90;;;;;;5097319;28;20563;-87
2021/09/14 01:12:56;;;;;;;2.57;0.93;;;16.70;99.90;;;;;;5096715;28;20483;-86
2021/09/14 01:15:24;;;;;;;1.97;1.10;;;16.80;99.90;;;;;;5097129;28;20866;-87
2021/09/14 01:17:51;;;;;;;1.23;0.97;;;16.70;99.90;;;;;;5097438;28;20456;-87
2021/09/14 01:20:18;;;;;;;2.43;1.10;;;16.70;99.90;;;;;;5096465;28;20464;-86
2021/09/14 01:22:47;;;;;;;0.80;0.80;;;16.70;99.90;;;;;;5097583;28;20774;-87
2021/09/14 01:25:16;;;;;;;1.33;0.80;;;16.60;99.90;;;;;;5096731;28;20517;-87
2021/09/14 01:27:43;;;;;;;1.43;0.90;;;16.60;99.90;;;;;;5096694;28;20428;-87
2021/09/14 01:30:13;;;;;;;1.67;0.97;;;16.50;99.90;;;;;;5096770;28;20491;-87
2021/09/14 01:32:40;;;;;;;1.37;0.80;;;16.50;99.90;;;;;;5096337;28;20476;-87
2021/09/14 01:35:09;;;;;;;2.87;1.43;;;16.50;99.90;;;;;;5097131;28;20572;-87
2021/09/14 01:37:36;;;;;;;3.13;1.10;;;16.60;99.90;;;;;;5096232;28;20452;-87
2021/09/14 01:40:05;;;;;;;1.40;0.83;;;16.50;99.90;;;;;;5095955;28;20485;-86
2021/09/14 01:42:32;;;;;;;1.63;0.80;;;16.50;99.90;;;;;;5097001;28;20797;-87
2021/09/14 01:44:59;;;;;;;1.20;0.90;;;16.60;99.90;;;;;;5097229;28;20890;-86
2021/09/14 01:47:26;;;;;;;1.70;0.80;;;16.60;99.90;;;;;;5096032;28;20957;-86
2021/09/14 01:49:53;;;;;;;2.03;0.90;;;16.60;99.90;;;;;;5101636;28;20480;-86
2021/09/14 01:52:20;;;;;;;1.37;1.20;;;16.50;99.90;;;;;;5104409;28;20456;-87
2021/09/14 01:54:49;;;;;;;1.33;0.77;;;16.50;99.90;;;;;;5096127;28;20438;-87
2021/09/14 01:57:20;;;;;;;0.93;0.90;;;16.40;99.90;;;;;;5095946;28;20445;-86
2021/09/14 01:59:50;;;;;;;0.70;0.70;;;16.40;99.90;;;;;;5096383;28;20460;-87
2021/09/14 02:02:23;;;;;;;1.47;1.13;;;16.40;99.90;;;;;;5096103;28;20444;-86
2021/09/14 02:04:54;;;;;;;1.43;0.83;;;16.40;99.90;;;;;;5096445;28;20441;-87
2021/09/14 02:07:35;;;;;;;1.00;0.97;;;16.40;99.90;;;;;;5095920;28;20436;-87
2021/09/14 02:56:50;;;;;;;2.43;1.30;;;16.00;99.90;;;;;;5095049;28;20503;-86
2021/09/14 02:59:16;;;;;;;2.60;1.13;;;16.00;99.90;;;;;;5094660;28;21019;-87
2021/09/14 03:01:44;;;;;;;1.10;1.03;;;16.00;99.90;;;;;;5095109;28;20448;-87
2021/09/14 03:04:13;;;;;;;1.50;1.03;;;16.00;99.90;;;;;;5094981;28;20277;-86
2021/09/14 03:06:40;;;;;;;0.83;0.70;;;16.10;99.90;;;;;;5095436;28;20452;-86
2021/09/14 03:09:07;;;;;;;1.37;1.27;;;16.10;99.90;;;;;;5094436;28;20511;-86
2021/09/14 03:11:34;;;;;;;2.20;0.93;;;16.10;99.90;;;;;;5094279;28;20432;-86
2021/09/14 03:14:01;;;;;;;0.80;0.80;;;16.10;99.90;;;;;;5094164;28;20833;-86
2021/09/14 03:16:28;;;;;;;0.80;0.80;;;16.10;99.90;;;;;;5095245;28;20506;-86
2021/09/14 03:18:56;;;;;;;0.80;0.80;;;16.10;99.90;;;;;;5094205;28;20480;-86
2021/09/14 03:21:23;;;;;;;1.90;0.97;;;16.10;99.90;;;;;;5094898;28;20452;-86
2021/09/14 03:23:50;;;;;;;2.50;1.93;;;16.10;99.90;;;;;;5094481;28;20523;-86
2021/09/14 03:26:17;;;;;;;0.90;0.73;;;16.10;99.90;;;;;;5094431;28;20474;-86
2021/09/14 03:28:44;;;;;;;1.67;1.20;;;16.00;99.90;;;;;;5094431;28;20476;-87
2021/09/14 03:31:15;;;;;;;2.23;1.03;;;16.00;99.90;;;;;;5094972;28;20462;-86
2021/09/14 03:33:42;;;;;;;1.17;1.07;;;16.10;99.90;;;;;;5094932;28;20486;-86
2021/09/14 03:36:10;;;;;;;0.70;0.70;;;16.10;99.90;;;;;;5104442;28;20452;-86
2021/09/14 03:38:37;;;;;;;1.23;1.13;;;16.00;99.90;;;;;;5095412;28;20471;-87
2021/09/14 03:41:04;;;;;;;1.33;1.13;;;16.00;99.90;;;;;;5094234;28;21017;-86
2021/09/14 03:43:31;;;;;;;1.10;0.87;;;16.10;99.90;;;;;;5094055;28;20458;-86
2021/09/14 03:45:58;;;;;;;0.70;0.70;;;16.00;99.90;;;;;;5094193;28;20530;-86
2021/09/14 03:48:25;;;;;;;1.07;0.97;;;16.00;99.90;;;;;;5094054;28;20479;-86
2021/09/14 03:50:52;;;;;;;1.00;0.83;;;16.00;99.90;;;;;;5093655;28;21017;-86
2021/09/14 03:53:20;;;;;;;2.57;1.20;;;16.00;99.90;;;;;;5093729;28;20873;-86
2021/09/14 03:55:47;;;;;;;1.73;1.10;;;16.00;99.90;;;;;;5093926;28;20448;-86
2021/09/14 03:58:14;;;;;;;0.90;0.80;;;16.00;99.90;;;;;;5094359;28;20448;-86
2021/09/14 04:00:42;;;;;;;0.80;0.80;;;15.90;99.90;;;;;;5095053;28;20942;-86
2021/09/14 04:03:12;;;;;;;0.90;0.53;;;15.90;99.90;;;;;;5098031;28;20459;-86
2021/09/14 04:05:47;;;;;;;2.70;1.20;;;15.90;99.90;;;;;;5098652;28;20460;-86
2021/09/14 04:11:00;;;;;;;1.77;0.90;;;15.90;99.90;;;;;;5097944;28;21008;-86
2021/09/14 04:13:27;;;;;;;1.23;1.13;;;15.90;99.90;;;;;;5098232;28;20491;-86
2021/09/14 04:15:54;;;;;;;1.50;1.20;;;15.90;99.90;;;;;;5097928;28;20535;-86
2021/09/14 04:18:21;;;;;;;1.40;0.80;;;15.90;99.90;;;;;;5098015;28;20454;-86
2021/09/14 04:20:47;;;;;;;2.10;1.20;;;15.90;99.90;;;;;;5097871;28;20485;-86
2021/09/14 04:23:14;;;;;;;1.87;1.20;;;15.90;99.90;;;;;;5097920;28;20456;-86
2021/09/14 04:25:41;;;;;;;2.30;1.20;;;15.90;99.90;;;;;;5097921;28;20451;-86
2021/09/14 04:28:09;;;;;;;1.00;1.00;;;15.90;99.90;;;;;;5097664;28;20448;-86
2021/09/14 04:30:36;;;;;;;1.13;0.70;;;15.90;99.90;;;;;;5097662;28;20475;-85
2021/09/14 04:33:03;;;;;;;1.67;0.97;;;15.90;99.90;;;;;;5097488;28;20532;-86
2021/09/14 04:35:30;;;;;;;1.27;1.00;;;15.90;99.90;;;;;;5098261;28;20454;-86
2021/09/14 04:37:57;;;;;;;1.27;1.17;;;15.80;99.90;;;;;;5097648;28;20535;-86
2021/09/14 04:40:24;;;;;;;1.40;0.90;;;15.80;99.90;;;;;;5098311;28;20467;-86
2021/09/14 04:42:51;;;;;;;1.33;0.77;;;15.80;99.90;;;;;;5097355;28;20800;-86
2021/09/14 04:45:19;;;;;;;1.57;0.90;;;15.80;99.90;;;;;;5097256;28;20448;-86
2021/09/14 04:47:46;;;;;;;0.70;0.70;;;15.80;99.90;;;;;;5097446;28;20456;-86
2021/09/14 04:50:13;;;;;;;2.10;0.90;;;15.70;99.90;;;;;;5097396;28;20479;-86
2021/09/14 04:52:40;;;;;;;1.60;0.70;;;15.70;99.90;;;;;;5097177;28;20455;-86
2021/09/14 04:55:08;;;;;;;0.73;0.73;;;15.70;99.90;;;;;;5097337;28;20807;-86
2021/09/14 04:57:35;;;;;;;0.70;0.60;;;15.70;99.90;;;;;;5097298;28;21014;-86
2021/09/14 05:00:02;;;;;;;0.70;0.70;;;15.70;99.90;;;;;;5097059;28;20463;-86
2021/09/14 05:02:30;;;;;;;1.10;0.70;;;15.60;99.90;;;;;;5096976;28;20455;-86
2021/09/14 05:04:58;;;;;;;0.93;0.80;;;15.60;99.90;;;;;;5097037;28;20927;-86
2021/09/14 05:07:25;;;;;;;0.80;0.80;;;15.50;99.90;;;;;;5096741;28;20479;-86
2021/09/14 05:09:52;;;;;;;2.03;1.00;;;15.50;99.90;;;;;;5096658;28;20480;-85
2021/09/14 05:12:19;;;;;;;0.87;0.80;;;15.50;99.90;;;;;;5095825;28;20475;-87
2021/09/14 05:14:46;;;;;;;1.30;1.20;;;15.50;99.90;;;;;;5096323;28;20540;-86
2021/09/14 05:17:12;;;;;;;1.00;0.83;;;15.60;99.90;;;;;;5097093;28;20444;-86
2021/09/14 05:19:42;;;;;;;1.63;1.27;;;15.60;99.90;;;;;;5096860;28;20475;-86
2021/09/14 05:22:09;;;;;;;3.43;1.17;;;15.60;99.90;;;;;;5096502;28;20467;-86
2021/09/14 05:24:36;;;;;;;0.87;0.87;;;15.60;99.90;;;;;;5096345;28;20432;-86
2021/09/14 05:27:03;;;;;;;1.03;0.90;;;15.60;99.90;;;;;;5096391;28;20440;-86
2021/09/14 05:29:29;;;;;;;1.07;0.97;;;15.60;99.90;;;;;;5096423;28;20464;-86
2021/09/14 05:31:57;;;;;;;2.00;1.23;;;15.70;99.90;;;;;;5096275;28;20456;-86
2021/09/14 05:34:25;;;;;;;1.10;0.90;;;15.70;99.90;;;;;;5095767;28;20993;-86
2021/09/14 05:36:53;;;;;;;1.63;0.90;;;15.80;99.90;;;;;;5096770;28;20776;-86
2021/09/14 05:39:21;;;;;;;3.00;1.17;;;15.80;99.90;;;;;;5096341;28;20963;-86
2021/09/14 05:41:48;;;;;;;1.00;0.77;;;15.90;99.90;;;;;;5096251;28;20448;-85
2021/09/14 05:44:14;;;;;;;1.77;0.80;;;15.90;99.90;;;;;;5095992;28;20489;-86
2021/09/14 05:46:41;;;;;;;1.10;0.80;;;15.90;99.90;;;;;;5096135;28;20432;-86
2021/09/14 05:49:08;;;;;;;0.70;0.70;;;16.00;99.90;;;;;;5105803;28;20468;-86
2021/09/14 05:51:35;;;;;;;0.50;0.50;;;16.00;99.90;;;;;;5097904;28;20483;-86
2021/09/14 05:54:03;;;;;;;1.70;1.60;;;16.00;99.90;;;;;;5095811;28;20442;-86
2021/09/14 05:56:32;;;;;;;4.17;0.70;;;16.10;99.90;;;;;;5095753;28;20451;-86
2021/09/14 05:58:59;;;;;;;2.10;1.27;;;16.10;99.90;;;;;;5095488;28;20448;-86
2021/09/14 06:01:27;;;;;;;2.57;1.20;;;16.10;99.90;;;;;;5095762;28;20493;-86
2021/09/14 06:03:54;;;;;;;2.17;1.10;;;16.20;99.90;;;;;;5095269;28;20452;-86
2021/09/14 06:06:21;;;;;;;1.33;1.00;;;16.20;99.90;;;;;;5095550;28;20478;-86
2021/09/14 06:08:48;;;;;;;3.50;1.03;;;16.30;99.90;;;;;;5095686;28;20475;-86
2021/09/14 06:11:16;;;;;;;1.33;1.00;;;16.40;99.90;;;;;;5095379;28;20484;-86
2021/09/14 06:13:43;;;;;;;1.20;1.07;;;16.40;99.90;;;;;;5095157;28;20480;-86
2021/09/14 06:16:10;;;;;;;2.07;1.10;;;16.50;99.90;;;;;;5095450;28;20480;-86
2021/09/14 06:18:37;;;;;;;1.63;1.40;;;16.60;99.90;;;;;;5095345;28;20452;-86
2021/09/14 06:21:04;;;;;;;2.07;1.07;;;16.70;99.90;;;;;;5095255;28;20448;-86
2021/09/14 06:23:30;;;;;;;1.80;1.10;;;16.80;99.90;;;;;;5095464;28;20531;-86
2021/09/14 06:25:57;;;;;;;1.23;0.90;;;17.00;99.90;;;;;;5094718;28;20780;-86
2021/09/14 06:28:25;;;;;;;5.70;1.07;;;17.10;99.90;;;;;;5095552;28;20474;-86
2021/09/14 06:30:52;;;;;;;0.83;0.83;;;17.20;99.90;;;;;;5094935;28;20490;-86
2021/09/14 06:33:19;;;;;;;0.60;0.57;;;17.30;99.90;;;;;;5095169;28;20450;-86
2021/09/14 06:35:47;;;;;;;2.60;1.00;;;17.40;99.90;;;;;;5095075;28;20439;-87
2021/09/14 06:38:14;;;;;;;2.83;0.90;;;17.50;99.90;;;;;;5095064;28;20531;-86
2021/09/14 06:40:41;;;;;;;2.40;1.30;;;17.60;99.90;;;;;;5095062;28;20432;-86
2021/09/14 06:43:08;;;;;;;0.77;0.77;;;17.60;99.90;;;;;;5095656;28;20444;-87
2021/09/14 06:45:36;;;;;;;3.37;1.50;;;17.70;99.90;;;;;;5095994;28;20463;-87
2021/09/14 06:48:03;;;;;;;1.90;0.87;;;17.70;99.90;;;;;;5095849;28;20476;-87
2021/09/14 06:50:30;;;;;;;0.93;0.93;;;17.80;99.90;;;;;;5095088;28;20452;-87
2021/09/14 06:52:58;;;;;;;1.93;0.90;;;17.90;99.90;;;;;;5095039;28;20481;-87
2021/09/14 06:55:25;;;;;;;2.40;1.20;;;18.00;99.90;;;;;;5095532;28;20789;-87
2021/09/14 06:57:52;;;;;;;1.83;0.90;;;18.00;99.90;;;;;;5096578;28;20806;-87
2021/09/14 07:00:19;;;;;;;1.03;0.83;;;18.20;99.90;;;;;;5096102;28;20476;-87
2021/09/14 07:02:47;;;;;;;1.07;0.90;;;18.20;99.90;;;;;;5094733;28;20444;-87
2021/09/14 07:05:14;;;;;;;1.77;0.90;;;18.30;99.90;;;;;;5094549;28;20520;-87
2021/09/14 07:07:40;;;;;;;2.13;1.20;;;18.30;99.90;;;;;;5094518;28;20805;-87
2021/09/14 07:10:08;;;;;;;2.53;0.93;;;18.40;99.90;;;;;;5094397;28;20547;-86
2021/09/14 07:12:35;;;;;;;4.17;1.13;;;18.40;99.90;;;;;;5095059;28;20931;-87
2021/09/14 07:15:03;;;;;;;1.40;1.00;;;18.50;99.90;;;;;;5094491;28;20483;-87
2021/09/14 07:17:30;;;;;;;0.97;0.87;;;18.60;99.90;;;;;;5094593;28;20883;-87
2021/09/14 07:19:58;;;;;;;1.87;1.00;;;18.60;99.90;;;;;;5094571;28;20491;-87
2021/09/14 07:22:25;;;;;;;1.30;0.90;;;18.70;99.90;;;;;;5094562;28;20475;-88
2021/09/14 07:24:52;;;;;;;1.90;1.10;;;18.80;99.90;;;;;;5094444;28;20968;-89
2021/09/14 07:27:19;;;;;;;1.00;0.90;;;18.90;99.90;;;;;;5095158;28;20447;-90
2021/09/14 07:29:45;;;;;;;2.30;1.10;;;18.90;99.90;;;;;;5094763;28;20483;-89
2021/09/14 07:32:12;;;;;;;1.30;0.97;;;19.00;99.90;;;;;;5095223;28;20564;-89
2021/09/14 07:34:39;;;;;;;2.40;1.20;;;19.10;99.90;;;;;;5094523;28;20794;-90
2021/09/14 07:37:07;;;;;;;1.20;0.90;;;19.20;99.90;;;;;;5094492;28;20497;-89
2021/09/14 07:39:34;;;;;;;2.30;1.13;;;19.30;99.90;;;;;;5094267;28;20462;-90
2021/09/14 07:42:01;;;;;;;1.90;1.10;;;19.50;99.90;;;;;;5094518;28;20455;-90
2021/09/14 07:44:28;;;;;;;1.27;0.70;;;19.60;99.90;;;;;;5094096;28;20458;-89
2021/09/14 07:46:56;;;;;;;1.30;1.20;;;19.70;99.90;;;;;;5094356;28;20483;-89
2021/09/14 07:49:23;;;;;;;1.73;0.93;;;19.80;99.90;;;;;;5094070;28;20539;-89
2021/09/14 07:51:49;;;;;;;1.20;0.83;;;19.80;99.90;;;;;;5094622;28;20476;-89
2021/09/14 07:54:18;;;;;;;1.60;1.10;;;19.90;99.90;;;;;;5093917;28;20419;-88
2021/09/14 07:56:44;;;;;;;0.87;0.80;;;20.00;99.90;;;;;;5093989;28;20436;-90
2021/09/14 07:59:12;;;;;;;3.13;1.30;;;20.00;99.90;;;;;;5094326;28;20462;-89
2021/09/14 08:01:40;;;;;;;1.00;1.00;;;20.10;99.90;;;;;;5094063;28;20911;-89
2021/09/14 08:04:07;;;;;;;1.30;1.17;;;20.30;99.90;;;;;;5094391;28;20416;-89
2021/09/14 08:06:34;;;;;;;1.17;0.87;;;20.50;99.90;;;;;;5094326;28;20438;-90
2021/09/14 08:09:01;;;;;;;1.07;0.97;;;20.60;99.90;;;;;;5094252;28;20478;-89
2021/09/14 08:11:29;;;;;;;1.53;1.20;;;20.70;99.90;;;;;;5094456;28;21027;-89
2021/09/14 08:13:56;;;;;;;1.37;1.33;;;20.80;99.90;;;;;;5093880;28;20822;-88
2021/09/14 08:16:23;;;;;;;1.20;0.90;;;21.00;99.90;;;;;;5093837;28;20455;-89
2021/09/14 08:18:50;;;;;;;1.10;1.07;;;21.10;99.90;;;;;;5094120;28;20478;-87
2021/09/14 08:21:17;;;;;;;1.67;1.00;;;21.30;99.90;;;;;;5093705;28;20503;-89
2021/09/14 08:23:44;;;;;;;1.07;0.87;;;21.40;99.90;;;;;;5094366;28;20451;-89
2021/09/14 08:26:10;;;;;;;1.97;1.27;;;21.50;99.90;;;;;;5093810;28;20427;-90
2021/09/14 08:28:39;;;;;;;1.50;1.40;;;21.70;99.90;;;;;;5094696;28;20834;-89
2021/09/14 08:31:05;;;;;;;2.90;1.63;;;21.90;99.90;;;;;;5093732;28;20798;-89
2021/09/14 08:33:32;;;;;;;5.97;1.30;;;22.00;99.90;;;;;;5093715;28;20503;-90
2021/09/14 08:35:59;;;;;;;0.90;0.90;;;22.20;99.90;;;;;;5094400;28;20447;-87
2021/09/14 08:38:27;;;;;;;0.63;0.63;;;22.30;99.90;;;;;;5093539;28;20474;-90
2021/09/14 08:40:54;;;;;;;0.97;0.87;;;22.40;99.90;;;;;;5094398;28;20423;-89
2021/09/14 08:43:22;;;;;;;2.13;1.27;;;22.50;99.90;;;;;;5093627;28;20416;-90
2021/09/14 08:45:52;;;;;;;3.60;1.13;;;22.60;99.90;;;;;;5094051;28;20503;-89
2021/09/14 08:48:19;;;;;;;1.23;0.90;;;22.80;99.90;;;;;;5096267;28;20453;-88
2021/09/14 08:50:47;;;;;;;0.80;0.80;;;22.90;99.90;;;;;;5097349;28;20463;-91
2021/09/14 08:53:14;;;;;;;1.47;0.80;;;23.00;99.90;;;;;;5097906;28;20499;-91
2021/09/14 08:55:41;;;;;;;1.27;1.17;;;23.20;99.90;;;;;;5097812;28;20219;-90
2021/09/14 08:58:09;;;;;;;1.27;1.00;;;23.40;99.90;;;;;;5097813;28;20430;-90
2021/09/14 09:00:38;;;;;;;1.30;1.20;;;23.60;99.90;;;;;;5098275;28;20561;-89
2021/09/14 09:03:07;;;;;;;1.25;1.10;;;23.90;99.90;;;;;;5098507;28;20194;-91
2021/09/14 09:05:35;;;;;;;1.63;1.52;;;24.10;99.90;;;;;;5097377;28;20251;-91
2021/09/14 09:08:03;;;;;;;0.88;0.80;;;24.40;99.90;;;;;;5097284;28;20264;-90
2021/09/14 09:10:31;;;;;;;1.27;0.90;;;24.70;99.90;;;;;;5097416;28;20281;-90
2021/09/14 09:13:00;;;;;;;2.08;1.23;;;24.90;99.90;;;;;;5097871;28;20200;-91
2021/09/14 09:15:29;;;;;;;6.50;0.75;;;25.10;99.90;;;;;;5096794;28;20240;-90
2021/09/14 09:18:06;;;;;;;1.52;1.10;;;25.20;99.90;;;;;;5098232;28;20556;-90
2021/09/14 09:20:34;;;;;;;1.58;1.10;;;25.20;99.90;;;;;;5097159;28;20643;-91
2021/09/14 09:23:03;;;;;;;0.77;0.70;;;25.30;99.90;;;;;;5097384;28;20678;-89
2021/09/14 09:25:31;;;;;;;1.35;0.85;;;25.30;99.90;;;;;;5096970;28;20200;-90
2021/09/14 09:28:38;;;;;;;1.30;1.20;;;25.20;99.90;;;;;;5096348;28;20182;-89
2021/09/14 09:32:03;;;;;;;1.90;1.42;;;25.30;99.90;;;;;;5097267;28;20570;-91
2021/09/14 09:35:20;;;;;;;1.17;1.08;;;25.60;99.90;;;;;;5095938;28;20254;-91
2021/09/14 10:38:27;;;;;;;1.38;1.27;;;26.70;99.90;;;;;;5073208;28;20295;-94
2021/09/14 10:40:56;;;;;;;1.15;0.95;;;26.70;99.90;;;;;;5055646;28;20602;-90
2021/09/14 10:43:28;;;;;;;1.05;0.95;;;26.70;99.90;;;;;;5055057;28;20175;-91
2021/09/14 10:45:55;;;;;;;1.10;1.00;;;26.90;99.90;;;;;;5054437;28;20210;-90
2021/09/14 10:48:26;;;;;;;1.10;1.00;;;27.10;99.90;;;;;;5055344;28;20282;-91
2021/09/14 10:50:53;;;;;;;1.30;1.20;;;27.40;99.90;;;;;;5054940;28;20215;-90
2021/09/14 10:53:25;;;;;;;1.85;0.93;;;27.60;99.90;;;;;;5054739;28;20193;-89
2021/09/14 10:56:00;;;;;;;1.35;1.25;;;27.80;99.90;;;;;;5054870;28;20630;-91
2021/09/14 10:58:40;;;;;;;1.30;1.20;;;28.20;99.90;;;;;;5054839;28;20315;-90
2021/09/14 11:01:07;;;;;;;1.00;0.90;;;28.30;99.90;;;;;;5055476;28;20622;-90
2021/09/14 11:03:50;;;;;;;1.90;1.10;;;28.30;99.90;;;;;;5054385;28;20208;-88
2021/09/14 11:06:18;;;;;;;1.88;1.05;;;28.00;99.90;;;;;;5054774;28;20200;-89
2021/09/14 11:08:46;;;;;;;1.27;1.17;;;27.90;99.90;;;;;;5054501;28;20233;-87
2021/09/14 11:11:17;;;;;;;1.05;1.00;;;27.60;99.90;;;;;;5053963;28;20290;-89
2021/09/14 12:44:19;;;;;;;1.25;1.05;;;25.60;99.90;;;;;;5047110;28;20205;-88
2021/09/14 13:17:17;;;;;;;1.10;1.00;;;25.40;99.90;;;;;;4991799;28;20734;-83
2021/09/14 13:19:44;;;;;;;1.17;0.95;;;25.40;99.90;;;;;;4974849;28;20231;-83
2021/09/14 13:22:11;;;;;;;3.33;1.15;;;25.50;99.90;;;;;;5008371;28;20211;-83
2021/09/14 13:24:38;;;;;;;1.25;1.00;;;25.70;99.90;;;;;;5035469;28;20671;-84
2021/09/14 13:27:05;;;;;;;1.30;1.20;;;25.70;99.90;;;;;;5035665;28;20200;-84
2021/09/14 13:29:33;;;;;;;1.35;1.15;;;25.60;99.90;;;;;;5035276;28;20219;-83
2021/09/14 13:32:00;;;;;;;2.70;1.00;;;25.60;99.90;;;;;;5035871;28;20752;-83
2021/09/14 13:34:28;;;;;;;1.23;1.13;;;25.60;99.90;;;;;;5035192;28;20250;-84
2021/09/14 13:36:55;;;;;;;1.40;1.15;;;25.60;99.90;;;;;;5036136;28;20203;-83
2021/09/14 13:39:22;;;;;;;1.80;0.80;;;25.60;99.90;;;;;;5035287;28;20254;-84
2021/09/14 13:41:51;;;;;;;1.20;1.10;;;25.60;99.90;;;;;;5035621;28;20187;-83
2021/09/14 13:47:11;;;;;;;1.30;1.00;;;25.40;99.90;;;;;;5014533;28;20253;-84
2021/09/14 13:49:39;;;;;;;1.08;1.08;;;25.20;99.90;;;;;;5055386;28;20650;-84
2021/09/14 13:52:06;;;;;;;1.67;1.35;;;25.10;99.90;;;;;;5055866;28;20211;-83
2021/09/14 13:54:32;;;;;;;2.83;1.30;;;24.90;99.90;;;;;;5055079;28;20180;-83
2021/09/14 13:56:59;;;;;;;2.20;1.55;;;24.90;99.90;;;;;;5055250;28;20187;-83
2021/09/14 13:59:27;;;;;;;1.20;1.10;;;24.80;99.90;;;;;;5054926;28;20229;-84
2021/09/14 14:01:54;;;;;;;2.15;1.30;;;24.70;99.90;;;;;;5055222;28;20179;-83
2021/09/14 14:04:21;;;;;;;1.38;0.95;;;24.70;99.90;;;;;;5055158;28;20187;-83
2021/09/14 14:06:49;;;;;;;1.10;1.00;;;24.70;99.90;;;;;;5055139;28;20183;-83
2021/09/14 14:09:16;;;;;;;1.42;1.15;;;24.90;99.90;;;;;;5054997;28;20226;-84
2021/09/14 14:11:44;;;;;;;5.53;1.80;;;25.20;99.90;;;;;;5055640;28;20556;-84
2021/09/14 14:14:11;;;;;;;1.45;1.20;;;25.30;99.90;;;;;;5054712;28;20290;-83
2021/09/14 14:16:39;;;;;;;1.25;1.13;;;25.20;99.90;;;;;;5054956;28;20191;-83
2021/09/14 14:19:07;;;;;;;1.50;1.35;;;25.20;99.90;;;;;;5054788;28;20226;-83
2021/09/14 14:21:33;;;;;;;1.08;0.98;;;25.10;99.90;;;;;;5054883;28;20191;-84
2021/09/14 14:24:01;;;;;;;1.50;1.23;;;25.20;99.90;;;;;;5054783;28;20539;-84
2021/09/14 14:26:28;;;;;;;3.20;1.20;;;25.10;99.90;;;;;;5054479;28;20183;-83
2021/09/14 14:28:55;;;;;;;1.63;1.27;;;25.00;99.90;;;;;;5054345;28;20234;-83
2021/09/14 14:31:22;;;;;;;1.85;1.27;;;24.90;99.90;;;;;;5054677;28;20195;-83
2021/09/14 14:33:48;;;;;;;1.77;1.67;;;24.80;99.90;;;;;;5054481;28;20207;-84
2021/09/14 14:36:15;;;;;;;1.52;1.30;;;24.70;99.90;;;;;;5058733;28;20209;-83
2021/09/14 14:38:42;;;;;;;1.52;1.42;;;24.60;99.90;;;;;;5054546;28;20215;-83
2021/09/14 14:41:11;;;;;;;1.70;1.60;;;24.60;99.90;;;;;;5054488;28;20187;-84
2021/09/14 14:43:38;;;;;;;1.77;1.65;;;24.60;99.90;;;;;;5054463;28;20187;-82
2021/09/14 14:46:05;;;;;;;1.42;1.25;;;24.50;99.90;;;;;;5053062;28;20238;-84
2021/09/14 14:48:33;;;;;;;1.70;1.17;;;24.40;99.90;;;;;;5053920;28;20222;-83
2021/09/14 14:51:00;;;;;;;1.30;1.08;;;24.30;99.90;;;;;;5054040;28;20183;-83
2021/09/14 14:53:27;;;;;;;1.35;1.10;;;24.30;99.90;;;;;;5054150;28;20215;-83
2021/09/14 14:55:54;;;;;;;2.28;1.40;;;24.30;99.90;;;;;;5054203;28;20191;-83
2021/09/14 14:58:22;;;;;;;1.38;1.27;;;24.30;99.90;;;;;;5054083;28;20175;-83
2021/09/14 15:00:50;;;;;;;1.80;1.35;;;24.30;99.90;;;;;;5054088;28;20186;-83
2021/09/14 15:03:20;;;;;;;2.33;1.45;;;24.20;99.90;;;;;;5054141;28;20195;-83
2021/09/14 15:05:47;;;;;;;2.15;1.60;;;24.20;99.90;;;;;;5053654;28;20238;-83
2021/09/14 15:08:14;;;;;;;1.35;1.23;;;24.20;99.90;;;;;;5053746;28;20186;-83
2021/09/14 15:10:41;;;;;;;1.92;1.48;;;24.30;99.90;;;;;;5053587;28;20187;-83
2021/09/14 15:13:07;;;;;;;1.10;1.10;;;24.30;99.90;;;;;;5054498;28;20226;-83
2021/09/14 15:15:35;;;;;;;1.98;1.48;;;24.40;99.90;;;;;;5054624;28;20191;-83
2021/09/14 15:18:04;;;;;;;1.85;1.17;;;24.30;99.90;;;;;;5053468;28;20187;-83
2021/09/14 15:20:31;;;;;;;1.70;1.30;;;24.30;99.90;;;;;;5053801;28;20200;-83
2021/09/14 15:22:58;;;;;;;2.17;1.40;;;24.20;99.90;;;;;;5053463;28;20187;-83
2021/09/14 15:25:25;;;;;;;1.60;1.17;;;24.20;99.90;;;;;;5053666;28;20210;-83
2021/09/14 15:27:52;;;;;;;3.45;1.10;;;24.20;99.90;;;;;;5053357;28;20183;-83
2021/09/14 15:30:29;;;;;;;2.53;1.27;;;24.20;99.90;;;;;;5053302;28;20211;-83
2021/09/14 15:33:01;;;;;;;1.40;1.30;;;24.30;99.90;;;;;;5053630;28;20575;-83
2021/09/14 15:35:29;;;;;;;1.55;1.35;;;24.30;99.90;;;;;;5053536;28;20202;-83
2021/09/14 15:37:58;;;;;;;1.67;1.20;;;24.20;99.90;;;;;;5054203;28;20205;-83
2021/09/14 15:40:26;;;;;;;1.10;1.00;;;24.20;99.90;;;;;;5053399;28;20227;-83
2021/09/14 15:42:52;;;;;;;2.30;1.48;;;24.10;99.90;;;;;;5053123;28;20186;-83
2021/09/14 15:45:19;;;;;;;2.13;1.48;;;24.10;99.90;;;;;;5053167;28;20229;-82
2021/09/14 15:47:46;;;;;;;1.88;1.77;;;24.00;99.90;;;;;;5054069;28;20206;-82
2021/09/14 15:50:14;;;;;;;1.75;1.63;;;24.00;99.90;;;;;;5053423;28;20650;-82
2021/09/14 15:52:41;;;;;;;1.52;1.15;;;24.10;99.90;;;;;;5052949;28;20678;-82
2021/09/14 15:55:09;;;;;;;2.05;1.45;;;24.10;99.90;;;;;;5053030;28;20190;-82
2021/09/14 15:57:36;;;;;;;2.92;1.67;;;24.00;99.90;;;;;;5053088;28;20186;-82
2021/09/14 16:00:04;;;;;;;2.80;1.80;;;23.90;99.90;;;;;;5053199;28;20218;-82
2021/09/14 16:02:30;;;;;;;1.33;1.23;;;23.70;99.90;;;;;;5053232;28;20186;-82
2021/09/14 16:04:57;;;;;;;1.00;0.90;;;23.50;99.90;;;;;;5053251;28;20183;-82
2021/09/14 16:07:25;;;;;;;2.23;1.47;;;23.40;99.90;;;;;;5053206;28;20187;-82
2021/09/14 16:09:52;;;;;;;2.20;1.60;;;23.30;99.90;;;;;;5053069;28;20230;-82
2021/09/14 16:12:19;;;;;;;1.17;1.17;;;23.30;99.90;;;;;;5053055;28;20213;-82
2021/09/14 16:14:46;;;;;;;1.63;1.52;;;23.20;99.90;;;;;;5052899;28;20179;-82
2021/09/14 16:17:12;;;;;;;2.15;1.42;;;23.10;99.90;;;;;;5053107;28;20191;-82
2021/09/14 16:19:39;;;;;;;3.00;1.45;;;23.10;99.90;;;;;;5052996;28;20222;-82
2021/09/14 16:22:06;;;;;;;2.17;2.00;;;23.10;99.90;;;;;;5052844;28;20186;-82
2021/09/14 16:24:34;;;;;;;2.17;1.52;;;23.10;99.90;;;;;;5053070;28;20270;-82
2021/09/14 16:27:01;;;;;;;4.53;2.20;;;23.10;99.90;;;;;;5053002;28;20191;-82
2021/09/14 16:29:28;;;;;;;1.40;1.27;;;23.10;99.90;;;;;;5052670;28;20759;-82
2021/09/14 16:31:55;;;;;;;8.68;2.92;;;23.10;99.90;;;;;;5053482;28;20198;-82
2021/09/14 16:34:22;;;;;;;5.60;2.30;;;23.30;99.90;;;;;;5052460;28;20678;-83
2021/09/14 16:36:49;;;;;;;3.80;1.53;;;23.50;99.90;;;;;;5055035;28;20198;-82
2021/09/14 16:39:16;;;;;;;1.83;1.47;;;23.40;99.90;;;;;;5052595;28;20214;-83
2021/09/14 16:41:46;;;;;;;2.60;1.30;;;23.30;99.90;;;;;;5052708;28;20575;-81
2021/09/14 16:44:13;;;;;;;1.20;1.10;;;23.30;99.90;;;;;;5053232;28;20179;-83
2021/09/14 16:46:40;;;;;;;6.10;1.60;;;23.20;99.90;;;;;;5052465;28;20227;-82